createdAt,value
2023-03-16T00:01:32.919Z,1004.32
2023-03-16T00:06:32.918Z,1004.30
2023-03-16T00:11:32.804Z,1004.31
2023-03-16T00:16:32.882Z,1004.29
2023-03-16T00:21:32.724Z,1004.32
2023-03-16T00:26:32.799Z,1004.39
2023-03-16T00:31:32.533Z,1004.33
2023-03-16T00:36:35.483Z,1004.40
2023-03-16T00:41:32.397Z,1004.40
2023-03-16T00:46:39.692Z,1004.38
2023-03-16T00:51:32.261Z,1004.42
2023-03-16T00:56:32.288Z,1004.42
2023-03-16T01:01:40.116Z,1004.44
2023-03-16T01:06:32.217Z,1004.45
2023-03-16T01:11:32.087Z,1004.40
2023-03-16T01:16:32.056Z,1004.39
2023-03-16T01:21:31.917Z,1004.37
2023-03-16T01:26:31.937Z,1004.38
2023-03-16T01:31:31.770Z,1004.36
2023-03-16T01:36:34.753Z,1004.34
2023-03-16T01:41:31.664Z,1004.29
2023-03-16T01:46:31.718Z,1004.28
2023-03-16T01:51:31.691Z,1004.21
2023-03-16T01:56:31.521Z,1004.13
2023-03-16T02:01:31.471Z,1004.13
2023-03-16T02:06:31.370Z,1004.13
2023-03-16T02:11:31.442Z,1004.08
2023-03-16T02:16:31.367Z,1004.24
2023-03-16T02:21:31.147Z,1004.27
2023-03-16T02:26:31.106Z,1004.19
2023-03-16T02:31:31.245Z,1004.22
2023-03-16T02:36:34.238Z,1004.20
2023-03-16T02:41:30.922Z,1004.30
2023-03-16T02:46:30.945Z,1004.23
2023-03-16T02:51:30.775Z,1004.25
2023-03-16T02:56:30.764Z,1004.27
2023-03-16T03:01:30.654Z,1004.24
2023-03-16T03:06:30.708Z,1004.25
2023-03-16T03:11:30.580Z,1004.30
2023-03-16T03:16:30.624Z,1004.29
2023-03-16T03:21:30.352Z,1004.36
2023-03-16T03:26:30.353Z,1004.34
2023-03-16T03:31:30.466Z,1004.32
2023-03-16T03:36:33.246Z,1004.28
2023-03-16T03:41:30.173Z,1004.29
2023-03-16T03:47:47.747Z,1004.24
2023-03-16T03:52:47.603Z,1004.25
2023-03-16T03:57:47.609Z,1004.25
2023-03-16T04:02:47.765Z,1004.33
2023-03-16T04:07:48.613Z,1004.25
2023-03-16T04:12:47.362Z,1004.23
2023-03-16T04:17:48.246Z,1004.23
2023-03-16T04:22:47.272Z,1004.16
2023-03-16T04:27:47.207Z,1004.19
2023-03-16T04:32:47.259Z,1004.13
2023-03-16T04:37:50.169Z,1004.25
2023-03-16T04:42:48.027Z,1004.31
2023-03-16T04:47:47.037Z,1004.21
2023-03-16T04:52:46.918Z,1004.21
2023-03-16T04:57:47.124Z,1004.16
2023-03-16T05:02:46.837Z,1004.08
2023-03-16T05:07:47.056Z,1004.04
2023-03-16T05:12:46.791Z,1004.08
2023-03-16T05:17:47.708Z,1004.12
2023-03-16T05:22:46.563Z,1004.10
2023-03-16T05:27:46.550Z,1004.11
2023-03-16T05:32:46.592Z,1004.15
2023-03-16T05:37:49.369Z,1004.11
2023-03-16T05:42:53.663Z,1004.14
2023-03-16T05:49:03.813Z,1004.25
2023-03-16T05:54:03.681Z,1004.33
2023-03-16T05:59:03.743Z,1004.35
2023-03-16T06:04:03.830Z,1004.22
2023-03-16T06:09:03.526Z,1004.11
2023-03-16T06:14:03.535Z,1004.07
2023-03-16T06:19:04.486Z,1004.01
2023-03-16T06:24:03.341Z,1003.95
2023-03-16T06:29:10.706Z,1003.88
2023-03-16T06:34:10.233Z,1003.79
2023-03-16T06:39:06.142Z,1003.73
2023-03-16T06:44:03.064Z,1003.80
2023-03-16T06:49:03.215Z,1003.60
2023-03-16T06:54:02.913Z,1003.58
2023-03-16T06:59:02.874Z,1003.58
2023-03-16T07:04:02.928Z,1003.46
2023-03-16T07:09:02.812Z,1003.40
2023-03-16T07:14:02.670Z,1003.44
2023-03-16T07:19:02.647Z,1003.35
2023-03-16T07:24:02.664Z,1003.34
2023-03-16T07:29:11.044Z,1003.32
2023-03-16T07:34:02.501Z,1003.26
2023-03-16T07:39:05.461Z,1003.23
2023-03-16T07:44:02.273Z,1003.18
2023-03-16T07:49:02.561Z,1003.17
2023-03-16T07:54:02.141Z,1003.13
2023-03-16T07:59:02.142Z,1003.25
2023-03-16T08:04:02.003Z,1003.33
2023-03-16T08:09:01.983Z,1003.47
2023-03-16T08:14:01.904Z,1003.41
2023-03-16T08:19:01.921Z,1003.46
2023-03-16T08:24:01.723Z,1003.48
2023-03-16T08:29:01.860Z,1003.62
2023-03-16T08:34:01.607Z,1003.70
2023-03-16T08:39:07.350Z,1003.73
2023-03-16T08:44:01.565Z,1003.75
2023-03-16T08:49:01.469Z,1003.84
2023-03-16T08:54:01.395Z,1003.81
2023-03-16T08:59:01.337Z,1003.83
2023-03-16T09:04:01.242Z,1003.82
2023-03-16T09:09:01.253Z,1003.86
2023-03-16T09:14:01.093Z,1003.76
2023-03-16T09:19:01.156Z,1003.71
2023-03-16T09:24:00.946Z,1003.72
2023-03-16T09:29:00.961Z,1003.76
2023-03-16T09:34:00.916Z,1003.61
2023-03-16T09:39:03.921Z,1003.67
2023-03-16T09:44:00.696Z,1003.65
2023-03-16T09:49:00.743Z,1003.65
2023-03-16T09:54:00.699Z,1003.67
2023-03-16T09:59:00.635Z,1003.60
2023-03-16T10:04:00.591Z,1003.55
2023-03-16T10:09:00.430Z,1003.51
2023-03-16T10:14:00.282Z,1003.47
2023-03-16T10:19:00.369Z,1003.39
2023-03-16T10:24:00.189Z,1003.32
2023-03-16T10:29:00.141Z,1003.29
2023-03-16T10:34:00.055Z,1003.12
2023-03-16T10:39:10.529Z,1003.25
2023-03-16T10:44:07.422Z,1003.27
2023-03-16T10:49:00.578Z,1003.16
2023-03-16T10:53:59.773Z,1003.25
2023-03-16T10:58:59.841Z,1003.19
2023-03-16T11:03:59.797Z,1003.10
2023-03-16T11:08:59.642Z,1003.02
2023-03-16T11:14:14.878Z,1002.98
2023-03-16T11:18:59.560Z,1002.95
2023-03-16T11:23:59.475Z,1002.86
2023-03-16T11:28:59.332Z,1002.75
2023-03-16T11:33:59.304Z,1002.71
2023-03-16T11:39:02.410Z,1002.63
2023-03-16T11:43:59.149Z,1002.53
2023-03-16T11:48:59.213Z,1002.36
2023-03-16T11:53:59.035Z,1002.36
2023-03-16T11:58:58.953Z,1002.28
2023-03-16T12:03:58.948Z,1002.21
2023-03-16T12:08:58.901Z,1002.21
2023-03-16T12:13:58.733Z,1002.16
2023-03-16T12:18:58.718Z,1002.14
2023-03-16T12:23:58.611Z,1002.07
2023-03-16T12:28:58.681Z,1001.96
2023-03-16T12:33:58.782Z,1001.96
2023-03-16T12:39:01.450Z,1001.78
2023-03-16T12:43:58.472Z,1001.68
2023-03-16T12:48:58.298Z,1001.65
2023-03-16T12:53:58.219Z,1001.61
2023-03-16T12:58:58.337Z,1001.50
2023-03-16T13:03:58.162Z,1001.38
2023-03-16T13:08:58.078Z,1001.46
2023-03-16T13:13:58.068Z,1001.46
2023-03-16T13:18:58.020Z,1001.46
2023-03-16T13:23:57.830Z,1001.49
2023-03-16T13:28:57.928Z,1001.49
2023-03-16T13:33:57.731Z,1001.44
2023-03-16T13:39:00.672Z,1001.48
2023-03-16T13:43:57.585Z,1001.36
2023-03-16T13:48:57.669Z,1001.29
2023-03-16T13:53:57.497Z,1001.29
2023-03-16T13:58:57.437Z,1001.22
2023-03-16T14:03:57.345Z,1001.01
2023-03-16T14:08:57.424Z,1000.88
2023-03-16T14:13:57.188Z,1000.84
2023-03-16T14:18:57.294Z,1000.76
2023-03-16T14:23:57.066Z,1000.58
2023-03-16T14:28:58.189Z,1000.54
2023-03-16T14:33:56.940Z,1000.40
2023-03-16T14:38:59.961Z,1000.41
2023-03-16T14:43:56.946Z,1000.35
2023-03-16T14:48:56.773Z,1000.36
2023-03-16T14:53:56.845Z,1000.40
2023-03-16T14:58:56.763Z,1000.18
2023-03-16T15:03:56.554Z,1000.25
2023-03-16T15:08:56.871Z,1000.33
2023-03-16T15:13:56.529Z,1000.24
2023-03-16T15:18:56.437Z,1000.19
2023-03-16T15:23:56.265Z,1000.20
2023-03-16T15:28:56.295Z,1000.19
2023-03-16T15:33:56.965Z,1000.23
2023-03-16T15:39:07.255Z,1000.15
2023-03-16T15:44:02.993Z,1000.08
2023-03-16T15:49:03.265Z,1000.08
2023-03-16T15:53:56.190Z,1000.15
2023-03-16T15:58:56.007Z,999.96
2023-03-16T16:03:55.771Z,999.96
2023-03-16T16:08:55.723Z,1000.02
2023-03-16T16:13:55.825Z,999.94
2023-03-16T16:18:55.682Z,999.85
2023-03-16T16:23:55.486Z,999.76
2023-03-16T16:28:55.483Z,999.82
2023-03-16T16:33:55.551Z,1000.01
2023-03-16T16:38:58.332Z,999.97
2023-03-16T16:43:55.238Z,999.93
2023-03-16T16:48:55.270Z,999.79
2023-03-16T16:53:55.173Z,999.75
2023-03-16T16:58:55.058Z,999.82
2023-03-16T17:03:59.502Z,999.82
2023-03-16T17:08:55.061Z,999.98
2023-03-16T17:13:55.855Z,999.96
2023-03-16T17:18:55.342Z,999.93
2023-03-16T17:23:54.740Z,999.85
2023-03-16T17:28:54.846Z,999.75
2023-03-16T17:33:54.600Z,999.78
2023-03-16T17:38:57.694Z,999.77
2023-03-16T17:43:54.517Z,999.84
2023-03-16T17:48:54.530Z,999.79
2023-03-16T17:53:54.311Z,999.73
2023-03-16T17:58:54.791Z,999.69
2023-03-16T18:03:54.401Z,999.61
2023-03-16T18:08:54.376Z,999.61
2023-03-16T18:13:54.057Z,999.55
2023-03-16T18:18:54.242Z,999.55
2023-03-16T18:23:54.014Z,999.63
2023-03-16T18:28:54.022Z,999.59
2023-03-16T18:33:53.897Z,999.63
2023-03-16T18:38:56.822Z,999.63
2023-03-16T18:43:54.569Z,999.56
2023-03-16T18:48:53.796Z,999.52
2023-03-16T18:53:53.569Z,999.45
2023-03-16T18:58:53.642Z,999.41
2023-03-16T19:03:53.493Z,999.49
2023-03-16T19:08:54.355Z,999.57
2023-03-16T19:13:54.704Z,999.49
2023-03-16T19:18:53.279Z,999.50
2023-03-16T19:23:53.268Z,999.49
2023-03-16T19:28:53.272Z,999.60
2023-03-16T19:33:53.015Z,999.54
2023-03-16T19:38:56.350Z,999.49
2023-03-16T19:43:52.888Z,999.45
2023-03-16T19:48:52.850Z,999.47
2023-03-16T19:53:52.843Z,999.40
2023-03-16T19:58:52.840Z,999.39
2023-03-16T20:03:52.743Z,999.32
2023-03-16T20:08:53.158Z,999.41
2023-03-16T20:13:52.675Z,999.39
2023-03-16T20:18:52.741Z,999.34
2023-03-16T20:23:52.353Z,999.40
2023-03-16T20:28:52.331Z,999.34
2023-03-16T20:33:52.266Z,999.35
2023-03-16T20:38:55.620Z,999.25
2023-03-16T20:43:52.113Z,999.26
2023-03-16T20:48:52.102Z,999.24
2023-03-16T20:53:52.026Z,999.19
2023-03-16T20:58:52.008Z,999.21
2023-03-16T21:03:51.983Z,999.14
2023-03-16T21:08:59.349Z,999.10
2023-03-16T21:13:59.273Z,999.16
2023-03-16T21:18:59.579Z,999.04
2023-03-16T21:23:51.606Z,998.99
2023-03-16T21:28:51.679Z,998.93
2023-03-16T21:33:51.493Z,998.90
2023-03-16T21:38:54.470Z,998.76
2023-03-16T21:43:51.331Z,998.77
2023-03-16T21:48:51.331Z,998.85
2023-03-16T21:53:51.285Z,998.78
2023-03-16T21:58:51.307Z,998.86
2023-03-16T22:03:51.588Z,998.76
2023-03-16T22:08:51.144Z,998.64
2023-03-16T22:13:50.977Z,998.58
2023-03-16T22:18:52.104Z,998.63
2023-03-16T22:23:50.842Z,998.63
2023-03-16T22:28:50.891Z,998.62
2023-03-16T22:33:50.699Z,998.58
2023-03-16T22:38:53.749Z,998.50
2023-03-16T22:43:50.605Z,998.44
2023-03-16T22:48:50.584Z,998.42
2023-03-16T22:53:50.466Z,998.30
2023-03-16T22:58:50.530Z,998.20
2023-03-16T23:03:50.362Z,998.14
2023-03-16T23:08:50.363Z,998.11
2023-03-16T23:13:50.210Z,998.02
2023-03-16T23:18:50.222Z,997.90
2023-03-16T23:24:02.641Z,997.92
2023-03-16T23:28:51.109Z,997.95
2023-03-16T23:33:49.946Z,997.86
2023-03-16T23:38:52.982Z,997.80
2023-03-16T23:43:49.823Z,997.83
2023-03-16T23:48:49.864Z,997.72
2023-03-16T23:53:49.688Z,997.70
2023-03-16T23:58:49.802Z,997.63
